Time;durP1;ratioP1;P1;durP2;ratioP2;P2;SDS_P1;SDS_P2;PMS_P1;PMS_P2;Temp;Humidity;BMP_temperature;BMP_pressure;BME280_temperature;BME280_humidity;BME280_pressure;Samples;Min_cycle;Max_cycle;Signal;HPM_P1;HPM_P2
2022/05/04 00:00:30;;;;;;;;;;;;;;;12.46;58.56;101289.75;5064193;28;20360;-77
2022/05/04 00:02:55;;;;;;;;;;;;;;;12.58;58.18;101289.53;5058123;28;19988;-77
2022/05/04 00:05:21;;;;;;;;;;;;;;;12.53;58.03;101289.66;5055516;28;19951;-77
2022/05/04 00:07:46;;;;;;;;;;;;;;;12.50;58.54;101289.69;5059049;28;20353;-77
2022/05/04 00:10:13;;;;;;;;;;;;;;;12.59;58.41;101293.88;5061181;28;19920;-78
2022/05/04 00:12:38;;;;;;;;;;;;;;;12.56;58.67;101289.59;5056452;28;19938;-78
2022/05/04 00:15:03;;;;;;;;;;;;;;;12.58;58.61;101290.41;5054649;28;19921;-77
2022/05/04 00:17:29;;;;;;;;;;;;;;;12.53;58.54;101288.78;5060334;28;20407;-77
2022/05/04 00:19:54;;;;;;;;;;;;;;;12.45;58.79;101285.47;5054827;28;20559;-77
2022/05/04 00:22:20;;;;;;;;;;;;;;;12.34;59.35;101292.59;5059228;28;19936;-77
2022/05/04 00:24:46;;;;;;;;;;;;;;;12.30;59.60;101291.84;5054931;28;19932;-77
2022/05/04 00:27:11;;;;;;;;;;;;;;;12.41;59.56;101283.78;5054467;28;19924;-77
2022/05/04 00:29:37;;;;;;;;;;;;;;;12.42;59.22;101290.72;5065072;28;19932;-74
2022/05/04 00:32:02;;;;;;;;;;;;;;;12.40;60.05;101282.06;5063747;28;20007;-77
2022/05/04 00:34:27;;;;;;;;;;;;;;;12.45;59.37;101283.69;5061939;28;19921;-78
2022/05/04 00:36:53;;;;;;;;;;;;;;;12.41;59.73;101289.88;5062778;28;19970;-77
2022/05/04 00:39:18;;;;;;;;;;;;;;;12.41;59.32;101282.06;5054066;28;19925;-77
2022/05/04 00:41:44;;;;;;;;;;;;;;;12.61;59.06;101285.13;5059251;28;20290;-77
2022/05/04 00:44:09;;;;;;;;;;;;;;;12.63;58.80;101283.34;5060981;28;19928;-77
2022/05/04 00:46:35;;;;;;;;;;;;;;;12.49;58.88;101282.75;5054337;28;19921;-77
2022/05/04 00:49:00;;;;;;;;;;;;;;;12.48;59.19;101283.63;5058785;28;20051;-77
2022/05/04 00:51:26;;;;;;;;;;;;;;;12.39;59.12;101281.22;5057419;28;19925;-77
2022/05/04 00:53:51;;;;;;;;;;;;;;;12.25;59.91;101282.38;5061820;28;20019;-77
2022/05/04 00:56:16;;;;;;;;;;;;;;;12.30;59.48;101284.03;5066975;28;19931;-77
2022/05/04 00:58:54;;;;;;;;;;;;;;;12.33;59.39;101291.78;5068588;28;19923;-77
2022/05/04 01:01:20;;;;;;;;;;;;;;;12.26;59.33;101291.91;5065114;28;19944;-77
2022/05/04 01:03:45;;;;;;;;;;;;;;;12.12;59.65;101292.19;5061225;28;19950;-77
2022/05/04 01:06:12;;;;;;;;;;;;;;;12.13;59.59;101299.09;5063352;28;19932;-77
2022/05/04 01:08:37;;;;;;;;;;;;;;;12.08;59.70;101295.72;5060077;28;19925;-77
2022/05/04 01:11:03;;;;;;;;;;;;;;;12.04;59.99;101299.25;5062217;28;20339;-78
2022/05/04 01:13:28;;;;;;;;;;;;;;;12.10;60.29;101293.94;5061212;28;19916;-78
2022/05/04 01:15:53;;;;;;;;;;;;;;;12.06;60.01;101294.91;5058735;28;20418;-81
2022/05/04 01:18:19;;;;;;;;;;;;;;;11.93;60.29;101296.88;5067427;28;19924;-82
2022/05/04 01:20:44;;;;;;;;;;;;;;;11.94;60.23;101305.53;5064590;28;19924;-82
2022/05/04 01:23:09;;;;;;;;;;;;;;;11.97;60.38;101301.16;5059930;28;20544;-81
2022/05/04 01:25:35;;;;;;;;;;;;;;;11.97;60.12;101305.50;5064893;28;19970;-82
2022/05/04 01:28:01;;;;;;;;;;;;;;;12.00;60.60;101302.81;5063297;28;19928;-82
2022/05/04 01:30:27;;;;;;;;;;;;;;;11.72;60.73;101296.38;5063923;28;19989;-81
2022/05/04 01:32:52;;;;;;;;;;;;;;;11.78;60.62;101289.31;5057767;28;19925;-81
2022/05/04 01:35:17;;;;;;;;;;;;;;;11.91;60.67;101293.44;5061382;28;19924;-82
2022/05/04 01:37:43;;;;;;;;;;;;;;;12.05;60.26;101301.84;5064071;28;19947;-82
2022/05/04 01:40:08;;;;;;;;;;;;;;;12.01;60.35;101294.09;5063446;28;19932;-82
2022/05/04 01:42:34;;;;;;;;;;;;;;;11.98;60.18;101294.16;5064231;28;20270;-81
2022/05/04 01:44:59;;;;;;;;;;;;;;;11.80;60.96;101292.75;5056968;28;19929;-75
2022/05/04 01:47:24;;;;;;;;;;;;;;;11.86;60.58;101300.44;5060877;28;19927;-74
2022/05/04 01:49:50;;;;;;;;;;;;;;;11.86;60.77;101299.63;5062283;28;19924;-77
2022/05/04 01:52:15;;;;;;;;;;;;;;;11.82;60.85;101296.22;5064819;28;19912;-77
2022/05/04 01:54:40;;;;;;;;;;;;;;;11.94;60.81;101293.38;5063308;28;19947;-74
2022/05/04 01:57:05;;;;;;;;;;;;;;;11.86;60.47;101297.03;5063920;28;20011;-75
2022/05/04 01:59:31;;;;;;;;;;;;;;;11.84;60.62;101294.44;5060849;28;20389;-74
2022/05/04 02:01:56;;;;;;;;;;;;;;;11.71;61.08;101295.50;5046727;28;19931;-74
2022/05/04 02:04:22;;;;;;;;;;;;;;;11.85;60.83;101292.69;5063072;28;19927;-77
2022/05/04 02:06:48;;;;;;;;;;;;;;;11.90;60.21;101298.66;5062153;28;19959;-77
2022/05/04 02:09:14;;;;;;;;;;;;;;;11.82;60.32;101296.22;5063259;28;19956;-78
2022/05/04 02:11:39;;;;;;;;;;;;;;;11.85;60.37;101296.16;5062006;28;20356;-82
2022/05/04 02:14:04;;;;;;;;;;;;;;;11.73;60.85;101298.97;5057245;28;19956;-81
2022/05/04 02:16:30;;;;;;;;;;;;;;;11.95;60.33;101302.03;5064173;28;20448;-81
2022/05/04 02:18:55;;;;;;;;;;;;;;;11.81;60.32;101297.09;5062759;28;19924;-81
2022/05/04 02:21:21;;;;;;;;;;;;;;;11.86;60.22;101310.88;5063375;28;20430;-78
2022/05/04 02:23:46;;;;;;;;;;;;;;;11.99;59.74;101295.91;5061935;28;20010;-78
2022/05/04 02:26:11;;;;;;;;;;;;;;;12.06;59.29;101300.97;5064223;28;19932;-78
2022/05/04 02:28:37;;;;;;;;;;;;;;;12.13;59.04;101304.31;5065831;28;19971;-81
2022/05/04 02:31:02;;;;;;;;;;;;;;;12.08;58.98;101300.94;5059205;28;19928;-81
2022/05/04 02:33:27;;;;;;;;;;;;;;;11.78;60.11;101304.94;5059781;28;19932;-82
2022/05/04 02:38:37;;;;;;;;;;;;;;;11.84;60.25;101298.78;5058714;28;19977;-81
2022/05/04 02:41:02;;;;;;;;;;;;;;;11.80;60.81;101299.72;5063903;28;19916;-74
2022/05/04 02:43:28;;;;;;;;;;;;;;;11.84;60.78;101297.03;5054716;28;20011;-75
2022/05/04 02:45:54;;;;;;;;;;;;;;;12.05;60.02;101293.19;5060745;28;19948;-78
2022/05/04 02:48:19;;;;;;;;;;;;;;;11.96;60.12;101289.00;5058357;28;19935;-77
2022/05/04 02:50:45;;;;;;;;;;;;;;;11.99;60.04;101296.75;5060300;28;19928;-79
2022/05/04 02:53:10;;;;;;;;;;;;;;;11.92;60.17;101292.53;5058787;28;19921;-79
2022/05/04 02:55:35;;;;;;;;;;;;;;;12.06;59.50;101287.97;5063852;28;19920;-75
2022/05/04 02:58:01;;;;;;;;;;;;;;;12.02;59.77;101282.81;5056781;28;20320;-75
2022/05/04 03:00:26;;;;;;;;;;;;;;;12.10;59.34;101286.13;5063234;28;19931;-74
2022/05/04 03:02:51;;;;;;;;;;;;;;;12.09;59.38;101289.63;5064275;28;19932;-74
2022/05/04 03:05:18;;;;;;;;;;;;;;;12.06;58.92;101287.09;5063130;28;19924;-74
2022/05/04 03:07:43;;;;;;;;;;;;;;;12.03;59.40;101284.53;5064098;28;19995;-81
2022/05/04 03:10:09;;;;;;;;;;;;;;;12.01;59.22;101286.28;5055915;28;20078;-77
2022/05/04 03:12:34;;;;;;;;;;;;;;;12.05;59.66;101287.97;5060713;28;19925;-77
2022/05/04 03:15:02;;;;;;;;;;;;;;;12.04;59.63;101289.72;5058186;28;20452;-79
2022/05/04 03:17:28;;;;;;;;;;;;;;;11.83;60.03;101291.88;5060011;28;19925;-79
2022/05/04 03:19:54;;;;;;;;;;;;;;;11.76;60.05;101287.66;5058036;28;19924;-79
2022/05/04 03:22:20;;;;;;;;;;;;;;;11.93;59.53;101289.06;5062108;28;19928;-79
2022/05/04 03:24:45;;;;;;;;;;;;;;;11.96;59.28;101295.94;5056464;28;19985;-79
2022/05/04 03:27:10;;;;;;;;;;;;;;;12.03;59.06;101292.34;5061936;28;19927;-79
2022/05/04 03:29:36;;;;;;;;;;;;;;;12.07;58.86;101286.19;5057850;28;19928;-79
2022/05/04 03:32:02;;;;;;;;;;;;;;;12.13;58.83;101275.66;5065305;28;19977;-79
2022/05/04 03:34:27;;;;;;;;;;;;;;;12.15;58.85;101278.25;5067712;28;19923;-80
2022/05/04 03:36:54;;;;;;;;;;;;;;;11.90;59.63;101281.31;5062899;28;19921;-79
2022/05/04 03:39:19;;;;;;;;;;;;;;;11.83;60.33;101276.25;5060188;28;19931;-79
2022/05/04 03:41:44;;;;;;;;;;;;;;;11.87;59.29;101278.75;5065130;28;20297;-79
2022/05/04 03:44:10;;;;;;;;;;;;;;;11.86;59.11;101265.78;5061674;28;20038;-79
2022/05/04 03:46:45;;;;;;;;;;;;;;;11.86;59.54;101276.19;5057365;28;19955;-79
2022/05/04 03:49:11;;;;;;;;;;;;;;;12.04;58.97;101281.03;5056874;28;19932;-79
2022/05/04 03:51:37;;;;;;;;;;;;;;;12.00;58.23;101280.25;5060452;28;19928;-79
2022/05/04 03:54:02;;;;;;;;;;;;;;;12.07;58.40;101286.19;5058239;28;19928;-79
2022/05/04 03:56:27;;;;;;;;;;;;;;;12.00;58.56;101288.06;5074407;28;19929;-78
2022/05/04 03:58:53;;;;;;;;;;;;;;;11.90;59.00;101286.50;5057387;28;20302;-78
2022/05/04 04:01:18;;;;;;;;;;;;;;;11.90;58.56;101289.13;5057469;28;19921;-78
2022/05/04 04:03:44;;;;;;;;;;;;;;;11.78;59.22;101291.94;5072421;28;20498;-78
2022/05/04 04:06:09;;;;;;;;;;;;;;;11.24;60.60;101291.06;5059107;28;19931;-78
2022/05/04 04:08:34;;;;;;;;;;;;;;;11.37;60.49;101299.56;5057550;28;19928;-77
2022/05/04 04:11:00;;;;;;;;;;;;;;;11.56;60.09;101293.19;5059964;28;19920;-77
2022/05/04 04:13:26;;;;;;;;;;;;;;;11.52;59.64;101295.00;5061516;28;20326;-79
2022/05/04 04:15:51;;;;;;;;;;;;;;;11.43;59.69;101304.69;5053536;28;19960;-74
2022/05/04 04:18:21;;;;;;;;;;;;;;;11.60;59.10;101296.59;5060061;28;20313;-74
2022/05/04 04:23:30;;;;;;;;;;;;;;;11.47;59.76;101302.00;5057073;28;20351;-81
2022/05/04 04:25:55;;;;;;;;;;;;;;;11.67;58.32;101311.22;5058361;28;19920;-74
2022/05/04 04:28:21;;;;;;;;;;;;;;;11.47;58.87;101304.59;5062189;28;19924;-74
2022/05/04 04:30:46;;;;;;;;;;;;;;;11.33;59.74;101300.50;5064900;28;19940;-74
2022/05/04 04:33:12;;;;;;;;;;;;;;;11.83;58.22;101295.31;5060748;28;19926;-74
2022/05/04 04:35:37;;;;;;;;;;;;;;;11.57;58.21;101302.69;5065124;28;19931;-74
2022/05/04 04:38:03;;;;;;;;;;;;;;;11.45;58.17;101303.75;5060851;28;20003;-74
2022/05/04 04:40:29;;;;;;;;;;;;;;;11.52;58.24;101310.59;5065123;28;20293;-74
2022/05/04 04:42:55;;;;;;;;;;;;;;;11.68;57.95;101308.56;5063386;28;19920;-82
2022/05/04 04:45:20;;;;;;;;;;;;;;;11.70;57.53;101313.78;5065887;28;20440;-81
2022/05/04 04:47:46;;;;;;;;;;;;;;;11.43;58.66;101315.09;5063875;28;19925;-82
2022/05/04 04:50:12;;;;;;;;;;;;;;;11.77;57.64;101316.22;5062679;28;19981;-81
2022/05/04 04:52:37;;;;;;;;;;;;;;;11.57;57.84;101324.38;5063655;28;20795;-80
2022/05/04 04:55:03;;;;;;;;;;;;;;;11.46;58.66;101322.84;5065524;28;19925;-82
2022/05/04 04:57:28;;;;;;;;;;;;;;;11.60;57.80;101330.41;5066378;28;19931;-82
2022/05/04 04:59:53;;;;;;;;;;;;;;;11.31;59.22;101333.47;5064782;28;20221;-79
2022/05/04 05:02:19;;;;;;;;;;;;;;;11.51;58.40;101323.63;5064230;28;19932;-79
2022/05/04 05:04:44;;;;;;;;;;;;;;;11.50;58.05;101329.72;5067782;28;19924;-79
2022/05/04 05:07:09;;;;;;;;;;;;;;;11.63;58.01;101338.16;5068621;28;19935;-79
2022/05/04 05:09:34;;;;;;;;;;;;;;;11.66;57.88;101330.31;5066864;28;19975;-79
2022/05/04 05:12:00;;;;;;;;;;;;;;;11.33;59.19;101340.38;5069600;28;19929;-82
2022/05/04 05:17:09;;;;;;;;;;;;;;;11.60;57.59;101336.47;5066533;28;19973;-81
2022/05/04 05:19:34;;;;;;;;;;;;;;;11.62;58.43;101341.69;5064886;28;20572;-75
2022/05/04 05:22:00;;;;;;;;;;;;;;;11.69;57.97;101335.47;5064898;28;20107;-81
2022/05/04 05:24:25;;;;;;;;;;;;;;;11.33;59.56;101342.09;5066911;28;19947;-82
2022/05/04 05:26:50;;;;;;;;;;;;;;;11.68;57.43;101339.81;5061581;28;19928;-82
2022/05/04 05:29:15;;;;;;;;;;;;;;;11.84;57.17;101338.69;5064406;28;19929;-82
2022/05/04 05:31:41;;;;;;;;;;;;;;;11.65;57.35;101346.84;5066254;28;20400;-77
2022/05/04 05:34:06;;;;;;;;;;;;;;;11.55;57.94;101344.38;5062597;28;19920;-82
2022/05/04 05:36:31;;;;;;;;;;;;;;;11.60;57.42;101341.69;5059301;28;19971;-75
2022/05/04 05:38:57;;;;;;;;;;;;;;;11.53;57.87;101340.91;5060660;28;20417;-79
2022/05/04 05:41:23;;;;;;;;;;;;;;;11.14;59.16;101338.91;5061754;28;19927;-83
2022/05/04 05:43:49;;;;;;;;;;;;;;;11.70;57.63;101330.25;5064581;28;20404;-75
2022/05/04 05:46:14;;;;;;;;;;;;;;;11.67;57.13;101334.66;5062277;28;20017;-74
2022/05/04 05:48:39;;;;;;;;;;;;;;;11.60;56.77;101336.47;5059599;28;19963;-74
2022/05/04 05:51:05;;;;;;;;;;;;;;;11.22;58.71;101339.66;5063923;28;19920;-81
2022/05/04 05:53:31;;;;;;;;;;;;;;;11.42;58.03;101335.03;5061070;28;19924;-82
2022/05/04 05:55:57;;;;;;;;;;;;;;;10.99;59.21;101337.38;5064294;28;19973;-82
2022/05/04 05:58:22;;;;;;;;;;;;;;;11.25;58.61;101341.34;5063893;28;20379;-77
2022/05/04 06:00:47;;;;;;;;;;;;;;;11.62;57.92;101341.69;5062963;28;20779;-77
2022/05/04 06:03:14;;;;;;;;;;;;;;;11.54;57.79;101336.56;5066645;28;19924;-77
2022/05/04 06:05:42;;;;;;;;;;;;;;;11.52;58.51;101333.16;5066088;28;20054;-77
2022/05/04 06:08:09;;;;;;;;;;;;;;;11.52;57.74;101331.41;5064229;28;20385;-79
2022/05/04 06:10:35;;;;;;;;;;;;;;;11.56;58.70;101335.66;5066888;28;20305;-74
2022/05/04 06:13:00;;;;;;;;;;;;;;;11.75;57.43;101327.56;5065072;28;19917;-79
2022/05/04 06:15:25;;;;;;;;;;;;;;;11.72;57.49;101338.03;5069624;28;20408;-79
2022/05/04 06:17:51;;;;;;;;;;;;;;;11.47;58.09;101335.81;5066066;28;19948;-81
2022/05/04 06:20:17;;;;;;;;;;;;;;;11.52;57.92;101331.41;5068749;28;20017;-79
2022/05/04 06:22:42;;;;;;;;;;;;;;;11.78;57.38;101335.31;5082244;28;19920;-79
2022/05/04 06:25:08;;;;;;;;;;;;;;;11.81;56.50;101343.06;5081886;28;19924;-79
2022/05/04 06:27:33;;;;;;;;;;;;;;;11.69;59.11;101338.94;5049842;28;20038;-79
2022/05/04 06:35:26;;;;;;;;;;;;;;;11.78;57.08;101343.13;5067267;28;19974;-77
2022/05/04 06:37:51;;;;;;;;;;;;;;;12.01;56.90;101343.59;5057930;28;19943;-77
2022/05/04 06:40:16;;;;;;;;;;;;;;;11.97;57.66;101344.53;5066899;28;19920;-78
2022/05/04 06:42:41;;;;;;;;;;;;;;;12.15;56.73;101349.44;5067169;28;19924;-77
2022/05/04 06:45:07;;;;;;;;;;;;;;;11.97;58.73;101347.16;5067394;28;20290;-74
2022/05/04 06:47:33;;;;;;;;;;;;;;;11.99;57.89;101354.03;5066649;28;19962;-79
2022/05/04 06:49:59;;;;;;;;;;;;;;;12.02;57.99;101356.59;5067920;28;19967;-78
2022/05/04 06:52:25;;;;;;;;;;;;;;;11.96;57.32;101350.63;5081772;28;20376;-77
2022/05/04 06:54:50;;;;;;;;;;;;;;;11.98;56.61;101354.06;5057776;28;19986;-77
2022/05/04 06:57:16;;;;;;;;;;;;;;;11.87;56.98;101363.78;5068451;28;19920;-79
2022/05/04 06:59:42;;;;;;;;;;;;;;;12.03;56.84;101362.66;5068108;28;20282;-81
2022/05/04 07:02:08;;;;;;;;;;;;;;;12.10;56.80;101361.66;5061165;28;20427;-74
2022/05/04 07:04:33;;;;;;;;;;;;;;;12.12;56.99;101352.09;5069392;28;20360;-81
2022/05/04 07:06:58;;;;;;;;;;;;;;;12.04;56.91;101359.16;5058541;28;19920;-79
2022/05/04 07:09:24;;;;;;;;;;;;;;;12.09;57.07;101365.16;5067492;28;20425;-79
2022/05/04 07:11:49;;;;;;;;;;;;;;;11.84;57.05;101356.03;5067032;28;19925;-74
2022/05/04 07:14:14;;;;;;;;;;;;;;;11.95;57.09;101356.72;5066923;28;19927;-74
2022/05/04 07:16:40;;;;;;;;;;;;;;;12.12;56.76;101359.91;5067832;28;20360;-74
2022/05/04 07:19:05;;;;;;;;;;;;;;;12.20;56.59;101349.31;5068263;28;19929;-81
2022/05/04 07:21:30;;;;;;;;;;;;;;;11.97;57.94;101350.63;5063846;28;20362;-77
2022/05/04 07:23:56;;;;;;;;;;;;;;;11.92;58.77;101349.81;5061456;28;20048;-80
2022/05/04 07:26:21;;;;;;;;;;;;;;;12.20;57.29;101337.16;5064130;28;19920;-79
2022/05/04 07:28:46;;;;;;;;;;;;;;;12.08;56.69;101345.19;5061493;28;19932;-77
2022/05/04 07:31:14;;;;;;;;;;;;;;;12.04;57.34;101346.13;5071683;28;20286;-74
2022/05/04 07:33:39;;;;;;;;;;;;;;;12.17;56.90;101350.25;5061611;28;19974;-79
2022/05/04 07:36:05;;;;;;;;;;;;;;;12.13;57.71;101348.56;5062709;28;19979;-74
2022/05/04 07:38:30;;;;;;;;;;;;;;;12.23;57.31;101355.34;5063649;28;20014;-74
2022/05/04 07:43:39;;;;;;;;;;;;;;;12.31;57.13;101355.19;5064124;28;19932;-74
2022/05/04 07:46:04;;;;;;;;;;;;;;;12.34;56.94;101347.31;5046647;28;19928;-74
2022/05/04 07:48:29;;;;;;;;;;;;;;;12.31;56.82;101352.59;5065155;28;19932;-74
2022/05/04 07:50:55;;;;;;;;;;;;;;;12.36;56.58;101355.97;5066861;28;20381;-78
2022/05/04 07:53:20;;;;;;;;;;;;;;;12.33;56.94;101362.13;5067647;28;19923;-79
2022/05/04 07:55:47;;;;;;;;;;;;;;;12.04;57.40;101366.97;5066522;28;20298;-74
2022/05/04 07:58:12;;;;;;;;;;;;;;;12.21;58.13;101362.34;5061221;28;19928;-79
2022/05/04 08:06:07;;;;;;;;;;;;;;;12.01;57.67;101361.81;5056539;28;19924;-77
2022/05/04 08:08:33;;;;;;;;;;;;;;;12.28;56.71;101363.91;5061367;28;19936;-78
2022/05/04 08:10:58;;;;;;;;;;;;;;;12.35;56.72;101364.69;5065409;28;19932;-78
2022/05/04 08:13:23;;;;;;;;;;;;;;;12.42;57.08;101361.91;5067148;28;20005;-74
2022/05/04 08:15:49;;;;;;;;;;;;;;;12.42;56.63;101366.28;5064988;28;20533;-78
2022/05/04 08:18:16;;;;;;;;;;;;;;;12.39;55.76;101363.75;5062602;28;19924;-78
2022/05/04 08:20:41;;;;;;;;;;;;;;;12.68;55.83;101371.88;5063117;28;19927;-78
2022/05/04 08:23:07;;;;;;;;;;;;;;;12.72;56.32;101372.69;5064263;28;19920;-78
2022/05/04 08:25:32;;;;;;;;;;;;;;;12.76;56.44;101371.72;5063979;28;20011;-78
2022/05/04 08:27:57;;;;;;;;;;;;;;;12.74;56.29;101374.38;5064518;28;19935;-74
2022/05/04 08:30:23;;;;;;;;;;;;;;;12.60;57.65;101373.78;5065431;28;20027;-78
2022/05/04 08:32:49;;;;;;;;;;;;;;;12.47;57.58;101380.09;5064157;28;19929;-78
2022/05/04 08:35:15;;;;;;;;;;;;;;;12.46;57.03;101374.00;5063458;28;20235;-74
2022/05/04 08:37:40;;;;;;;;;;;;;;;12.53;57.42;101375.66;5065424;28;20520;-74
2022/05/04 08:40:08;;;;;;;;;;;;;;;12.65;56.51;101383.22;5063311;28;20472;-78
2022/05/04 08:42:35;;;;;;;;;;;;;;;12.74;57.19;101379.59;5063167;28;19924;-74
2022/05/04 08:45:01;;;;;;;;;;;;;;;12.59;57.57;101372.94;5057870;28;19928;-77
2022/05/04 08:47:29;;;;;;;;;;;;;;;12.76;57.41;101374.31;5064318;28;20297;-78
2022/05/04 08:49:54;;;;;;;;;;;;;;;12.76;57.23;101367.38;5065267;28;19924;-77
2022/05/04 08:52:21;;;;;;;;;;;;;;;12.79;57.52;101356.00;5064607;28;20577;-78
2022/05/04 08:54:48;;;;;;;;;;;;;;;12.88;56.68;101358.44;5063023;28;19928;-81
2022/05/04 08:57:14;;;;;;;;;;;;;;;12.96;56.30;101356.50;5064306;28;19952;-81
2022/05/04 08:59:41;;;;;;;;;;;;;;;12.87;56.27;101359.34;5068416;28;19966;-78
2022/05/04 09:02:07;;;;;;;;;;;;;;;13.08;56.59;101354.50;5061092;28;19934;-74
2022/05/04 09:04:33;;;;;;;;;;;;;;;13.16;55.84;101354.34;5058161;28;20396;-74
2022/05/04 09:07:01;;;;;;;;;;;;;;;13.02;56.13;101352.03;5062750;28;19928;-74
2022/05/04 09:09:27;;;;;;;;;;;;;;;13.05;56.19;101351.09;5062940;28;19954;-78
2022/05/04 09:11:52;;;;;;;;;;;;;;;13.14;56.84;101354.38;5062463;28;19928;-81
2022/05/04 09:14:20;;;;;;;;;;;;;;;13.12;56.52;101353.56;5062881;28;20028;-74
2022/05/04 09:16:46;;;;;;;;;;;;;;;13.27;56.47;101354.09;5061181;28;19925;-81
2022/05/04 09:19:12;;;;;;;;;;;;;;;13.26;56.22;101342.78;5069758;28;19916;-77
2022/05/04 09:21:41;;;;;;;;;;;;;;;13.22;57.02;101349.81;5069838;28;19925;-74
2022/05/04 09:24:07;;;;;;;;;;;;;;;13.35;56.16;101350.41;5067634;28;19966;-74
2022/05/04 09:26:38;;;;;;;;;;;;;;;13.33;55.85;101344.38;5065304;28;19972;-81
2022/05/04 09:29:05;;;;;;;;;;;;;;;13.34;56.65;101338.28;5061909;28;20358;-81
2022/05/04 09:31:31;;;;;;;;;;;;;;;13.29;56.61;101341.84;5061732;28;19979;-81
2022/05/04 09:33:57;;;;;;;;;;;;;;;13.26;56.70;101355.84;5064688;28;20346;-77
2022/05/04 09:36:33;;;;;;;;;;;;;;;13.19;56.22;101346.44;5064485;28;19951;-77
2022/05/04 09:47:18;;;;;;;;;;;;;;;13.22;55.28;101354.22;5060545;28;19990;-76
2022/05/04 09:49:46;;;;;;;;;;;;;;;13.30;55.39;101348.81;5063462;28;19975;-73
2022/05/04 09:52:14;;;;;;;;;;;;;;;13.33;54.98;101344.38;5063628;28;19929;-80
2022/05/04 09:54:39;;;;;;;;;;;;;;;13.32;56.12;101342.66;5066073;28;19936;-80
2022/05/04 09:57:04;;;;;;;;;;;;;;;13.41;56.19;101342.44;5062380;28;19920;-77
2022/05/04 09:59:31;;;;;;;;;;;;;;;13.44;55.49;101341.50;5062914;28;19924;-77
2022/05/04 10:01:58;;;;;;;;;;;;;;;13.37;54.55;101343.44;5065352;28;20000;-77
2022/05/04 10:04:26;;;;;;;;;;;;;;;13.41;54.66;101344.19;5066414;28;19916;-77
2022/05/04 10:06:53;;;;;;;;;;;;;;;13.45;54.67;101343.22;5066435;28;20004;-74
2022/05/04 10:09:18;;;;;;;;;;;;;;;13.27;55.26;101346.25;5066893;28;19955;-80
2022/05/04 10:11:44;;;;;;;;;;;;;;;13.40;54.84;101339.88;5060703;28;21667;-80
2022/05/04 10:14:10;;;;;;;;;;;;;;;13.45;55.41;101344.09;5068835;28;19924;-80
2022/05/04 10:16:55;;;;;;;;;;;;;;;13.53;54.78;101338.69;5081920;28;19956;-74
2022/05/04 10:19:28;;;;;;;;;;;;;;;13.53;54.95;101342.16;5065570;28;19928;-74
2022/05/04 10:21:55;;;;;;;;;;;;;;;13.57;54.63;101340.34;5060445;28;19967;-74
2022/05/04 10:24:21;;;;;;;;;;;;;;;13.59;54.81;101331.56;5068962;28;19928;-74
2022/05/04 10:26:47;;;;;;;;;;;;;;;13.59;54.25;101331.56;5062947;28;19970;-77
2022/05/04 10:32:32;;;;;;;;;;;;;;;13.62;54.00;101331.50;5065323;28;20806;-79
2022/05/04 10:35:13;;;;;;;;;;;;;;;13.63;54.38;101325.38;5058596;28;20408;-80
2022/05/04 10:38:02;;;;;;;;;;;;;;;13.67;54.93;101321.81;5062842;28;20454;-80
2022/05/04 10:40:32;;;;;;;;;;;;;;;13.62;53.89;101331.50;5058852;28;19921;-80
2022/05/04 10:43:02;;;;;;;;;;;;;;;13.62;54.16;101331.50;5065636;28;19950;-80
2022/05/04 10:45:37;;;;;;;;;;;;;;;13.57;55.74;101337.72;5060796;28;19931;-80
2022/05/04 10:48:15;;;;;;;;;;;;;;;13.65;54.52;101341.84;5063052;28;20384;-78
2022/05/04 10:50:50;;;;;;;;;;;;;;;13.66;53.59;101340.09;5059175;28;19925;-73
2022/05/04 10:53:19;;;;;;;;;;;;;;;13.72;54.22;101330.41;5064891;28;19931;-77
2022/05/04 10:55:53;;;;;;;;;;;;;;;13.83;54.44;101324.03;5074706;28;19970;-77
2022/05/04 10:58:34;;;;;;;;;;;;;;;13.83;54.49;101324.03;5060889;28;19928;-74
2022/05/04 11:01:08;;;;;;;;;;;;;;;13.93;53.66;101312.47;5061544;28;20297;-74
2022/05/04 11:03:34;;;;;;;;;;;;;;;13.87;53.95;101310.88;5062407;28;19935;-80
2022/05/04 11:06:09;;;;;;;;;;;;;;;13.92;53.39;101314.22;5060952;28;19924;-81
2022/05/04 11:08:36;;;;;;;;;;;;;;;13.88;53.10;101306.53;5060068;28;19928;-81
2022/05/04 11:11:01;;;;;;;;;;;;;;;13.96;54.04;101307.16;5064176;28;19928;-78
2022/05/04 11:13:27;;;;;;;;;;;;;;;13.95;53.87;101305.44;5060641;28;20344;-81
2022/05/04 11:15:52;;;;;;;;;;;;;;;13.96;53.29;101302.81;5053072;28;19921;-81
2022/05/04 11:18:21;;;;;;;;;;;;;;;14.02;53.74;101304.41;5062673;28;19935;-79
2022/05/04 11:20:46;;;;;;;;;;;;;;;14.07;53.41;101305.97;5060120;28;20554;-80
2022/05/04 11:23:12;;;;;;;;;;;;;;;14.10;53.25;101299.81;5062344;28;20062;-78
2022/05/04 11:25:37;;;;;;;;;;;;;;;14.15;52.99;101301.41;5056792;28;19921;-79
2022/05/04 11:28:03;;;;;;;;;;;;;;;14.08;52.90;101299.88;5060687;28;19925;-81
2022/05/04 11:30:28;;;;;;;;;;;;;;;14.09;53.14;101293.72;5058439;28;19924;-81
2022/05/04 11:32:54;;;;;;;;;;;;;;;14.11;52.55;101289.34;5063620;28;19931;-81
2022/05/04 11:35:19;;;;;;;;;;;;;;;14.13;53.06;101289.28;5057698;28;19935;-73
2022/05/04 11:37:44;;;;;;;;;;;;;;;14.15;52.91;101287.47;5060410;28;19917;-79
2022/05/04 11:40:16;;;;;;;;;;;;;;;14.15;52.56;101284.84;5061382;28;19932;-77
2022/05/04 11:42:41;;;;;;;;;;;;;;;14.17;52.39;101283.94;5067333;28;19928;-77
2022/05/04 11:45:08;;;;;;;;;;;;;;;14.22;52.06;101274.22;5062953;28;20369;-81
2022/05/04 11:47:33;;;;;;;;;;;;;;;14.26;51.83;101272.38;5057264;28;19921;-81
2022/05/04 11:49:59;;;;;;;;;;;;;;;14.30;51.98;101281.81;5055932;28;19936;-80
2022/05/04 11:52:24;;;;;;;;;;;;;;;14.27;52.45;101271.47;5063204;28;19920;-74
2022/05/04 11:54:50;;;;;;;;;;;;;;;14.23;52.60;101270.69;5061361;28;19924;-77
2022/05/04 11:57:19;;;;;;;;;;;;;;;14.38;52.37;101265.94;5063279;28;20293;-77
2022/05/04 11:59:46;;;;;;;;;;;;;;;14.36;51.65;101273.81;5060927;28;19963;-79
2022/05/04 12:02:11;;;;;;;;;;;;;;;14.37;51.46;101265.09;5064262;28;19925;-79
2022/05/04 12:04:37;;;;;;;;;;;;;;;14.44;51.56;101255.31;5061707;28;19935;-79
2022/05/04 12:07:03;;;;;;;;;;;;;;;14.36;52.16;101252.91;5064570;28;19928;-79
2022/05/04 12:09:28;;;;;;;;;;;;;;;14.46;52.57;101256.13;5054760;28;19941;-77
2022/05/04 12:11:54;;;;;;;;;;;;;;;14.45;51.31;101242.19;5050202;28;19967;-77
2022/05/04 12:14:20;;;;;;;;;;;;;;;14.53;51.01;101252.44;5064182;28;19935;-74
2022/05/04 12:16:45;;;;;;;;;;;;;;;14.52;50.83;101251.56;5062494;28;19924;-81
2022/05/04 12:19:11;;;;;;;;;;;;;;;14.52;51.46;101246.34;5062136;28;19935;-81
2022/05/04 12:21:37;;;;;;;;;;;;;;;14.56;51.24;101247.94;5056104;28;19928;-79
2022/05/04 12:24:03;;;;;;;;;;;;;;;14.57;51.82;101251.41;5055749;28;20009;-79
2022/05/04 12:26:29;;;;;;;;;;;;;;;14.68;50.44;101244.13;5055161;28;19959;-77
2022/05/04 12:34:27;;;;;;;;;;;;;;;14.69;50.81;101237.97;5060633;28;19931;-74
2022/05/04 12:36:52;;;;;;;;;;;;;;;14.79;50.31;101229.00;5064331;28;19934;-81
2022/05/04 12:39:20;;;;;;;;;;;;;;;14.91;49.70;101232.97;5062731;28;19932;-77
2022/05/04 12:41:45;;;;;;;;;;;;;;;14.87;48.87;101230.47;5057497;28;19936;-74
2022/05/04 12:44:14;;;;;;;;;;;;;;;14.86;49.09;101223.50;5060405;28;20348;-74
2022/05/04 12:46:39;;;;;;;;;;;;;;;15.02;48.31;101218.66;5065509;28;19917;-79
2022/05/04 12:49:05;;;;;;;;;;;;;;;14.90;49.22;101226.03;5060005;28;19932;-78
2022/05/04 12:51:31;;;;;;;;;;;;;;;15.03;50.05;101215.16;5067091;28;20584;-79
2022/05/04 12:53:56;;;;;;;;;;;;;;;15.09;49.44;101219.31;5066906;28;20011;-81
2022/05/04 12:59:06;;;;;;;;;;;;;;;15.17;49.57;101219.91;5066841;28;19971;-77
2022/05/04 13:01:31;;;;;;;;;;;;;;;15.13;49.32;101218.28;5065441;28;20378;-74
2022/05/04 13:03:57;;;;;;;;;;;;;;;15.17;48.59;101217.31;5068980;28;20400;-81
2022/05/04 13:06:23;;;;;;;;;;;;;;;15.17;48.59;101225.16;5072116;28;19931;-78
2022/05/04 13:08:48;;;;;;;;;;;;;;;15.20;48.70;101223.28;5066150;28;19965;-79
2022/05/04 13:11:20;;;;;;;;;;;;;;;15.22;49.10;101231.09;5061522;28;20304;-81